sensor_id;sensor_type;location;lat;lon;timestamp;P1;durP1;ratioP1;P2;durP2;ratioP2
43756;SDS011;73222;41.866;12.462;2024-02-15T00:01:20;30.50;;;15.85;;
43756;SDS011;73222;41.866;12.462;2024-02-15T00:03:46;29.40;;;16.17;;
43756;SDS011;73222;41.866;12.462;2024-02-15T00:06:12;25.67;;;16.00;;
43756;SDS011;73222;41.866;12.462;2024-02-15T00:08:37;25.02;;;15.10;;
43756;SDS011;73222;41.866;12.462;2024-02-15T00:11:03;24.90;;;14.48;;
43756;SDS011;73222;41.866;12.462;2024-02-15T00:13:28;28.92;;;14.80;;
43756;SDS011;73222;41.866;12.462;2024-02-15T00:15:54;21.27;;;13.02;;
43756;SDS011;73222;41.866;12.462;2024-02-15T00:18:20;26.10;;;13.32;;
43756;SDS011;73222;41.866;12.462;2024-02-15T00:20:46;20.20;;;12.55;;
43756;SDS011;73222;41.866;12.462;2024-02-15T00:23:11;20.98;;;12.90;;
43756;SDS011;73222;41.866;12.462;2024-02-15T00:25:37;21.10;;;12.68;;
43756;SDS011;73222;41.866;12.462;2024-02-15T00:28:02;26.92;;;12.20;;
43756;SDS011;73222;41.866;12.462;2024-02-15T00:30:28;22.45;;;12.30;;
43756;SDS011;73222;41.866;12.462;2024-02-15T00:32:53;18.48;;;11.40;;
43756;SDS011;73222;41.866;12.462;2024-02-15T00:35:19;23.63;;;11.73;;
43756;SDS011;73222;41.866;12.462;2024-02-15T00:37:44;23.27;;;12.18;;
43756;SDS011;73222;41.866;12.462;2024-02-15T00:40:10;23.02;;;11.77;;
43756;SDS011;73222;41.866;12.462;2024-02-15T00:42:36;21.08;;;12.05;;
43756;SDS011;73222;41.866;12.462;2024-02-15T00:45:02;17.70;;;10.93;;
43756;SDS011;73222;41.866;12.462;2024-02-15T00:47:28;19.23;;;11.18;;
43756;SDS011;73222;41.866;12.462;2024-02-15T00:49:53;18.45;;;10.98;;
43756;SDS011;73222;41.866;12.462;2024-02-15T00:52:19;21.55;;;11.38;;
43756;SDS011;73222;41.866;12.462;2024-02-15T00:54:45;19.98;;;9.88;;
43756;SDS011;73222;41.866;12.462;2024-02-15T00:57:11;21.63;;;11.98;;
43756;SDS011;73222;41.866;12.462;2024-02-15T00:59:36;21.60;;;10.95;;
43756;SDS011;73222;41.866;12.462;2024-02-15T01:02:02;20.25;;;11.00;;
43756;SDS011;73222;41.866;12.462;2024-02-15T01:04:28;18.80;;;11.20;;
43756;SDS011;73222;41.866;12.462;2024-02-15T01:06:54;22.40;;;11.25;;
43756;SDS011;73222;41.866;12.462;2024-02-15T01:09:20;17.83;;;12.02;;
43756;SDS011;73222;41.866;12.462;2024-02-15T01:11:46;18.10;;;10.80;;
43756;SDS011;73222;41.866;12.462;2024-02-15T01:14:12;16.30;;;10.43;;
43756;SDS011;73222;41.866;12.462;2024-02-15T01:16:38;17.20;;;9.65;;
43756;SDS011;73222;41.866;12.462;2024-02-15T01:19:03;20.48;;;12.07;;
43756;SDS011;73222;41.866;12.462;2024-02-15T01:21:29;16.63;;;10.57;;
43756;SDS011;73222;41.866;12.462;2024-02-15T01:23:55;23.45;;;11.43;;
43756;SDS011;73222;41.866;12.462;2024-02-15T01:26:20;16.58;;;10.18;;
43756;SDS011;73222;41.866;12.462;2024-02-15T01:28:46;20.55;;;12.20;;
43756;SDS011;73222;41.866;12.462;2024-02-15T01:31:11;20.58;;;11.35;;
43756;SDS011;73222;41.866;12.462;2024-02-15T01:33:37;20.83;;;11.15;;
43756;SDS011;73222;41.866;12.462;2024-02-15T01:36:03;21.60;;;11.98;;
43756;SDS011;73222;41.866;12.462;2024-02-15T01:38:29;19.17;;;10.98;;
43756;SDS011;73222;41.866;12.462;2024-02-15T01:40:55;19.05;;;11.23;;
43756;SDS011;73222;41.866;12.462;2024-02-15T01:43:20;18.77;;;11.38;;
43756;SDS011;73222;41.866;12.462;2024-02-15T01:45:46;16.58;;;10.23;;
43756;SDS011;73222;41.866;12.462;2024-02-15T01:48:13;19.85;;;10.48;;
43756;SDS011;73222;41.866;12.462;2024-02-15T01:50:40;15.75;;;10.25;;
43756;SDS011;73222;41.866;12.462;2024-02-15T01:53:07;16.55;;;11.07;;
43756;SDS011;73222;41.866;12.462;2024-02-15T01:55:35;20.50;;;11.00;;
43756;SDS011;73222;41.866;12.462;2024-02-15T01:58:01;15.00;;;10.43;;
43756;SDS011;73222;41.866;12.462;2024-02-15T02:00:27;19.23;;;11.35;;
43756;SDS011;73222;41.866;12.462;2024-02-15T02:02:53;15.07;;;9.55;;
43756;SDS011;73222;41.866;12.462;2024-02-15T02:05:20;15.98;;;10.30;;
43756;SDS011;73222;41.866;12.462;2024-02-15T02:07:46;18.25;;;10.15;;
43756;SDS011;73222;41.866;12.462;2024-02-15T02:10:12;16.05;;;10.02;;
43756;SDS011;73222;41.866;12.462;2024-02-15T02:12:37;16.02;;;10.13;;
43756;SDS011;73222;41.866;12.462;2024-02-15T02:15:06;16.40;;;11.18;;
43756;SDS011;73222;41.866;12.462;2024-02-15T02:17:32;16.70;;;8.93;;
43756;SDS011;73222;41.866;12.462;2024-02-15T02:19:58;15.55;;;9.52;;
43756;SDS011;73222;41.866;12.462;2024-02-15T02:22:24;19.20;;;10.10;;
43756;SDS011;73222;41.866;12.462;2024-02-15T02:24:57;14.23;;;8.75;;
43756;SDS011;73222;41.866;12.462;2024-02-15T02:27:28;19.13;;;9.25;;
43756;SDS011;73222;41.866;12.462;2024-02-15T02:29:53;18.15;;;9.10;;
43756;SDS011;73222;41.866;12.462;2024-02-15T02:32:19;12.18;;;8.10;;
43756;SDS011;73222;41.866;12.462;2024-02-15T02:34:45;14.55;;;9.10;;
43756;SDS011;73222;41.866;12.462;2024-02-15T02:37:10;16.30;;;10.07;;
43756;SDS011;73222;41.866;12.462;2024-02-15T02:39:37;15.77;;;9.35;;
43756;SDS011;73222;41.866;12.462;2024-02-15T02:42:02;14.55;;;9.38;;
43756;SDS011;73222;41.866;12.462;2024-02-15T02:44:27;15.20;;;8.57;;
43756;SDS011;73222;41.866;12.462;2024-02-15T02:46:53;12.50;;;7.85;;
43756;SDS011;73222;41.866;12.462;2024-02-15T02:49:18;16.98;;;9.27;;
43756;SDS011;73222;41.866;12.462;2024-02-15T02:51:44;12.27;;;8.40;;
43756;SDS011;73222;41.866;12.462;2024-02-15T02:54:09;12.48;;;8.55;;
43756;SDS011;73222;41.866;12.462;2024-02-15T02:56:36;13.30;;;8.45;;
43756;SDS011;73222;41.866;12.462;2024-02-15T02:59:01;14.38;;;8.88;;
43756;SDS011;73222;41.866;12.462;2024-02-15T03:01:26;15.27;;;8.65;;
43756;SDS011;73222;41.866;12.462;2024-02-15T03:03:52;17.15;;;9.13;;
43756;SDS011;73222;41.866;12.462;2024-02-15T03:06:20;14.73;;;8.65;;
43756;SDS011;73222;41.866;12.462;2024-02-15T03:08:46;12.75;;;9.32;;
43756;SDS011;73222;41.866;12.462;2024-02-15T03:11:12;14.98;;;9.00;;
43756;SDS011;73222;41.866;12.462;2024-02-15T03:13:38;13.25;;;8.50;;
43756;SDS011;73222;41.866;12.462;2024-02-15T03:16:04;16.55;;;9.05;;
43756;SDS011;73222;41.866;12.462;2024-02-15T03:18:30;14.27;;;8.27;;
43756;SDS011;73222;41.866;12.462;2024-02-15T03:20:57;15.75;;;9.38;;
43756;SDS011;73222;41.866;12.462;2024-02-15T03:23:22;19.00;;;8.90;;
43756;SDS011;73222;41.866;12.462;2024-02-15T03:25:48;13.38;;;8.82;;
43756;SDS011;73222;41.866;12.462;2024-02-15T03:28:14;15.55;;;8.48;;
43756;SDS011;73222;41.866;12.462;2024-02-15T03:30:40;19.70;;;8.20;;
43756;SDS011;73222;41.866;12.462;2024-02-15T03:33:08;13.75;;;8.70;;
43756;SDS011;73222;41.866;12.462;2024-02-15T03:35:33;13.07;;;8.60;;
43756;SDS011;73222;41.866;12.462;2024-02-15T03:37:59;16.55;;;8.23;;
43756;SDS011;73222;41.866;12.462;2024-02-15T03:40:26;11.57;;;7.35;;
43756;SDS011;73222;41.866;12.462;2024-02-15T03:42:52;12.70;;;8.00;;
43756;SDS011;73222;41.866;12.462;2024-02-15T03:45:18;11.35;;;8.00;;
43756;SDS011;73222;41.866;12.462;2024-02-15T03:47:43;17.23;;;9.00;;
43756;SDS011;73222;41.866;12.462;2024-02-15T03:50:09;15.80;;;8.38;;
43756;SDS011;73222;41.866;12.462;2024-02-15T03:52:35;14.57;;;7.97;;
43756;SDS011;73222;41.866;12.462;2024-02-15T03:55:00;14.65;;;8.48;;
43756;SDS011;73222;41.866;12.462;2024-02-15T03:57:27;13.27;;;8.52;;
43756;SDS011;73222;41.866;12.462;2024-02-15T03:59:53;14.10;;;8.63;;
43756;SDS011;73222;41.866;12.462;2024-02-15T04:02:20;13.98;;;8.52;;
43756;SDS011;73222;41.866;12.462;2024-02-15T04:04:45;11.85;;;7.80;;
43756;SDS011;73222;41.866;12.462;2024-02-15T04:09:41;12.15;;;8.50;;
43756;SDS011;73222;41.866;12.462;2024-02-15T04:12:07;12.15;;;7.70;;
43756;SDS011;73222;41.866;12.462;2024-02-15T04:14:32;13.60;;;8.10;;
43756;SDS011;73222;41.866;12.462;2024-02-15T04:16:59;15.93;;;8.73;;
43756;SDS011;73222;41.866;12.462;2024-02-15T04:19:25;15.30;;;8.50;;
43756;SDS011;73222;41.866;12.462;2024-02-15T04:21:50;11.40;;;7.97;;
43756;SDS011;73222;41.866;12.462;2024-02-15T04:24:16;13.95;;;9.20;;
43756;SDS011;73222;41.866;12.462;2024-02-15T04:26:42;14.23;;;9.43;;
43756;SDS011;73222;41.866;12.462;2024-02-15T04:29:07;11.43;;;7.80;;
43756;SDS011;73222;41.866;12.462;2024-02-15T04:31:34;15.73;;;8.80;;
43756;SDS011;73222;41.866;12.462;2024-02-15T04:34:02;16.20;;;8.55;;
43756;SDS011;73222;41.866;12.462;2024-02-15T04:36:28;13.60;;;7.95;;
43756;SDS011;73222;41.866;12.462;2024-02-15T04:38:58;12.75;;;8.38;;
43756;SDS011;73222;41.866;12.462;2024-02-15T04:41:24;13.20;;;8.05;;
43756;SDS011;73222;41.866;12.462;2024-02-15T04:43:50;14.02;;;8.55;;
43756;SDS011;73222;41.866;12.462;2024-02-15T04:46:18;12.02;;;8.15;;
43756;SDS011;73222;41.866;12.462;2024-02-15T04:48:49;13.00;;;8.10;;
43756;SDS011;73222;41.866;12.462;2024-02-15T04:51:15;15.25;;;9.20;;
43756;SDS011;73222;41.866;12.462;2024-02-15T04:53:44;13.88;;;9.05;;
43756;SDS011;73222;41.866;12.462;2024-02-15T04:56:11;12.10;;;8.68;;
43756;SDS011;73222;41.866;12.462;2024-02-15T04:58:41;13.98;;;8.38;;
43756;SDS011;73222;41.866;12.462;2024-02-15T05:01:13;11.35;;;7.57;;
43756;SDS011;73222;41.866;12.462;2024-02-15T05:03:40;17.25;;;8.40;;
43756;SDS011;73222;41.866;12.462;2024-02-15T05:06:05;15.43;;;8.18;;
43756;SDS011;73222;41.866;12.462;2024-02-15T05:11:02;12.38;;;7.40;;
43756;SDS011;73222;41.866;12.462;2024-02-15T05:13:29;11.70;;;7.93;;
43756;SDS011;73222;41.866;12.462;2024-02-15T05:15:55;12.52;;;7.05;;
43756;SDS011;73222;41.866;12.462;2024-02-15T05:18:20;12.30;;;7.70;;
43756;SDS011;73222;41.866;12.462;2024-02-15T05:20:46;15.55;;;8.20;;
43756;SDS011;73222;41.866;12.462;2024-02-15T05:23:11;11.60;;;7.25;;
43756;SDS011;73222;41.866;12.462;2024-02-15T05:25:37;15.35;;;8.18;;
43756;SDS011;73222;41.866;12.462;2024-02-15T05:28:03;11.48;;;8.35;;
43756;SDS011;73222;41.866;12.462;2024-02-15T05:30:30;10.88;;;7.43;;
43756;SDS011;73222;41.866;12.462;2024-02-15T05:32:57;12.65;;;7.85;;
43756;SDS011;73222;41.866;12.462;2024-02-15T05:35:23;11.70;;;7.85;;
43756;SDS011;73222;41.866;12.462;2024-02-15T05:37:49;14.00;;;8.70;;
43756;SDS011;73222;41.866;12.462;2024-02-15T05:40:17;15.52;;;8.07;;
43756;SDS011;73222;41.866;12.462;2024-02-15T05:42:44;11.43;;;7.00;;
43756;SDS011;73222;41.866;12.462;2024-02-15T05:47:49;12.65;;;7.72;;
43756;SDS011;73222;41.866;12.462;2024-02-15T05:50:14;14.05;;;8.70;;
43756;SDS011;73222;41.866;12.462;2024-02-15T05:52:40;12.35;;;8.00;;
43756;SDS011;73222;41.866;12.462;2024-02-15T05:55:05;13.45;;;8.15;;
43756;SDS011;73222;41.866;12.462;2024-02-15T05:57:31;11.68;;;7.90;;
43756;SDS011;73222;41.866;12.462;2024-02-15T05:59:57;10.77;;;7.22;;
43756;SDS011;73222;41.866;12.462;2024-02-15T06:02:27;15.25;;;7.22;;
43756;SDS011;73222;41.866;12.462;2024-02-15T06:04:52;14.05;;;7.38;;
43756;SDS011;73222;41.866;12.462;2024-02-15T06:07:19;14.95;;;9.02;;
43756;SDS011;73222;41.866;12.462;2024-02-15T06:09:45;16.17;;;8.20;;
43756;SDS011;73222;41.866;12.462;2024-02-15T06:12:11;14.30;;;8.38;;
43756;SDS011;73222;41.866;12.462;2024-02-15T06:14:36;14.70;;;7.95;;
43756;SDS011;73222;41.866;12.462;2024-02-15T06:17:02;13.70;;;8.15;;
43756;SDS011;73222;41.866;12.462;2024-02-15T06:19:27;14.90;;;9.00;;
43756;SDS011;73222;41.866;12.462;2024-02-15T06:21:52;12.27;;;7.75;;
43756;SDS011;73222;41.866;12.462;2024-02-15T06:24:18;13.60;;;7.93;;
43756;SDS011;73222;41.866;12.462;2024-02-15T06:26:44;14.65;;;7.90;;
43756;SDS011;73222;41.866;12.462;2024-02-15T06:29:10;9.98;;;7.22;;
43756;SDS011;73222;41.866;12.462;2024-02-15T06:31:54;10.95;;;7.65;;
43756;SDS011;73222;41.866;12.462;2024-02-15T06:34:38;12.88;;;7.68;;
43756;SDS011;73222;41.866;12.462;2024-02-15T06:37:34;11.48;;;7.55;;
43756;SDS011;73222;41.866;12.462;2024-02-15T06:40:19;10.93;;;7.88;;
43756;SDS011;73222;41.866;12.462;2024-02-15T06:42:45;14.05;;;8.23;;
43756;SDS011;73222;41.866;12.462;2024-02-15T06:45:11;14.00;;;7.53;;
43756;SDS011;73222;41.866;12.462;2024-02-15T06:47:41;11.68;;;7.97;;
43756;SDS011;73222;41.866;12.462;2024-02-15T06:50:07;12.60;;;7.35;;
43756;SDS011;73222;41.866;12.462;2024-02-15T06:52:34;11.43;;;6.97;;
43756;SDS011;73222;41.866;12.462;2024-02-15T06:54:59;10.65;;;7.20;;
43756;SDS011;73222;41.866;12.462;2024-02-15T06:57:25;10.43;;;7.10;;
43756;SDS011;73222;41.866;12.462;2024-02-15T06:59:51;12.00;;;7.60;;
43756;SDS011;73222;41.866;12.462;2024-02-15T07:02:16;9.88;;;7.25;;
43756;SDS011;73222;41.866;12.462;2024-02-15T07:04:43;13.35;;;7.72;;
43756;SDS011;73222;41.866;12.462;2024-02-15T07:07:10;11.35;;;8.32;;
43756;SDS011;73222;41.866;12.462;2024-02-15T07:09:37;11.50;;;8.10;;
43756;SDS011;73222;41.866;12.462;2024-02-15T07:12:03;11.68;;;8.70;;
43756;SDS011;73222;41.866;12.462;2024-02-15T07:14:29;11.40;;;7.35;;
43756;SDS011;73222;41.866;12.462;2024-02-15T07:16:55;10.48;;;6.82;;
43756;SDS011;73222;41.866;12.462;2024-02-15T07:19:23;11.02;;;7.65;;
43756;SDS011;73222;41.866;12.462;2024-02-15T07:21:50;11.90;;;8.50;;
43756;SDS011;73222;41.866;12.462;2024-02-15T07:24:16;12.95;;;8.45;;
43756;SDS011;73222;41.866;12.462;2024-02-15T07:26:41;11.25;;;7.72;;
43756;SDS011;73222;41.866;12.462;2024-02-15T07:29:07;10.85;;;7.15;;
43756;SDS011;73222;41.866;12.462;2024-02-15T07:31:33;10.82;;;8.05;;
43756;SDS011;73222;41.866;12.462;2024-02-15T07:33:58;12.15;;;8.00;;
43756;SDS011;73222;41.866;12.462;2024-02-15T07:36:24;10.60;;;7.35;;
43756;SDS011;73222;41.866;12.462;2024-02-15T07:38:51;11.20;;;7.82;;
43756;SDS011;73222;41.866;12.462;2024-02-15T07:41:18;9.38;;;7.47;;
43756;SDS011;73222;41.866;12.462;2024-02-15T07:43:47;13.27;;;7.85;;
43756;SDS011;73222;41.866;12.462;2024-02-15T07:46:19;9.05;;;7.55;;
43756;SDS011;73222;41.866;12.462;2024-02-15T07:48:45;10.55;;;7.50;;
43756;SDS011;73222;41.866;12.462;2024-02-15T07:51:15;19.77;;;8.05;;
43756;SDS011;73222;41.866;12.462;2024-02-15T07:53:41;10.40;;;7.75;;
43756;SDS011;73222;41.866;12.462;2024-02-15T07:56:08;12.00;;;7.70;;
43756;SDS011;73222;41.866;12.462;2024-02-15T07:58:37;12.27;;;8.10;;
43756;SDS011;73222;41.866;12.462;2024-02-15T08:01:04;12.65;;;7.65;;
43756;SDS011;73222;41.866;12.462;2024-02-15T08:03:30;9.45;;;7.50;;
43756;SDS011;73222;41.866;12.462;2024-02-15T08:05:56;12.70;;;7.75;;
43756;SDS011;73222;41.866;12.462;2024-02-15T08:08:21;13.45;;;8.32;;
43756;SDS011;73222;41.866;12.462;2024-02-15T08:10:46;14.85;;;9.30;;
43756;SDS011;73222;41.866;12.462;2024-02-15T08:13:14;11.90;;;8.02;;
43756;SDS011;73222;41.866;12.462;2024-02-15T08:15:40;13.40;;;8.57;;
43756;SDS011;73222;41.866;12.462;2024-02-15T08:18:05;17.35;;;8.90;;
43756;SDS011;73222;41.866;12.462;2024-02-15T08:20:34;12.55;;;8.63;;
43756;SDS011;73222;41.866;12.462;2024-02-15T08:22:59;13.05;;;8.27;;
43756;SDS011;73222;41.866;12.462;2024-02-15T08:25:25;12.35;;;8.07;;
43756;SDS011;73222;41.866;12.462;2024-02-15T08:27:50;13.07;;;7.78;;
43756;SDS011;73222;41.866;12.462;2024-02-15T08:30:16;11.40;;;8.30;;
43756;SDS011;73222;41.866;12.462;2024-02-15T08:32:42;11.50;;;7.90;;
43756;SDS011;73222;41.866;12.462;2024-02-15T08:35:08;10.70;;;8.40;;
43756;SDS011;73222;41.866;12.462;2024-02-15T08:37:35;14.05;;;8.50;;
43756;SDS011;73222;41.866;12.462;2024-02-15T08:40:05;13.70;;;8.65;;
43756;SDS011;73222;41.866;12.462;2024-02-15T08:42:42;12.15;;;7.57;;
43756;SDS011;73222;41.866;12.462;2024-02-15T08:45:09;9.75;;;7.82;;
43756;SDS011;73222;41.866;12.462;2024-02-15T08:47:36;13.07;;;8.95;;
43756;SDS011;73222;41.866;12.462;2024-02-15T08:50:05;13.38;;;7.68;;
43756;SDS011;73222;41.866;12.462;2024-02-15T08:52:31;9.65;;;6.88;;
43756;SDS011;73222;41.866;12.462;2024-02-15T08:54:57;9.63;;;7.15;;
43756;SDS011;73222;41.866;12.462;2024-02-15T08:57:24;9.15;;;7.40;;
43756;SDS011;73222;41.866;12.462;2024-02-15T08:59:51;12.55;;;6.82;;
43756;SDS011;73222;41.866;12.462;2024-02-15T09:02:20;9.43;;;7.38;;
43756;SDS011;73222;41.866;12.462;2024-02-15T09:04:46;9.68;;;6.88;;
43756;SDS011;73222;41.866;12.462;2024-02-15T09:07:11;13.27;;;6.47;;
43756;SDS011;73222;41.866;12.462;2024-02-15T09:09:36;11.38;;;6.93;;
43756;SDS011;73222;41.866;12.462;2024-02-15T09:12:03;9.25;;;6.55;;
43756;SDS011;73222;41.866;12.462;2024-02-15T09:14:32;13.10;;;7.38;;
43756;SDS011;73222;41.866;12.462;2024-02-15T09:16:58;14.63;;;7.63;;
43756;SDS011;73222;41.866;12.462;2024-02-15T09:19:24;9.85;;;7.45;;
43756;SDS011;73222;41.866;12.462;2024-02-15T09:21:50;10.30;;;7.22;;
43756;SDS011;73222;41.866;12.462;2024-02-15T09:24:15;10.25;;;6.20;;
43756;SDS011;73222;41.866;12.462;2024-02-15T09:26:41;10.60;;;6.75;;
43756;SDS011;73222;41.866;12.462;2024-02-15T09:29:07;9.27;;;6.10;;
43756;SDS011;73222;41.866;12.462;2024-02-15T09:31:33;9.18;;;6.70;;
43756;SDS011;73222;41.866;12.462;2024-02-15T09:34:00;10.73;;;6.43;;
43756;SDS011;73222;41.866;12.462;2024-02-15T09:36:26;11.18;;;5.80;;
43756;SDS011;73222;41.866;12.462;2024-02-15T09:38:53;9.95;;;5.95;;
43756;SDS011;73222;41.866;12.462;2024-02-15T09:41:19;8.13;;;5.97;;
43756;SDS011;73222;41.866;12.462;2024-02-15T09:43:44;8.05;;;6.00;;
43756;SDS011;73222;41.866;12.462;2024-02-15T09:46:10;9.25;;;5.93;;
43756;SDS011;73222;41.866;12.462;2024-02-15T09:48:35;8.45;;;6.28;;
43756;SDS011;73222;41.866;12.462;2024-02-15T09:51:02;7.88;;;5.82;;
43756;SDS011;73222;41.866;12.462;2024-02-15T09:53:29;7.97;;;5.80;;
43756;SDS011;73222;41.866;12.462;2024-02-15T09:55:54;10.75;;;6.00;;
43756;SDS011;73222;41.866;12.462;2024-02-15T09:58:21;6.38;;;5.20;;
43756;SDS011;73222;41.866;12.462;2024-02-15T10:00:49;12.48;;;5.93;;
43756;SDS011;73222;41.866;12.462;2024-02-15T10:03:16;8.23;;;6.10;;
43756;SDS011;73222;41.866;12.462;2024-02-15T10:05:44;8.23;;;5.75;;
43756;SDS011;73222;41.866;12.462;2024-02-15T10:08:10;11.48;;;6.18;;
43756;SDS011;73222;41.866;12.462;2024-02-15T10:10:36;8.45;;;6.53;;
43756;SDS011;73222;41.866;12.462;2024-02-15T10:13:01;7.75;;;5.35;;
43756;SDS011;73222;41.866;12.462;2024-02-15T10:15:28;8.30;;;5.80;;
43756;SDS011;73222;41.866;12.462;2024-02-15T10:17:57;8.98;;;5.47;;
43756;SDS011;73222;41.866;12.462;2024-02-15T10:20:24;7.80;;;5.28;;
43756;SDS011;73222;41.866;12.462;2024-02-15T10:23:12;7.88;;;5.30;;
43756;SDS011;73222;41.866;12.462;2024-02-15T10:25:37;7.88;;;5.65;;
43756;SDS011;73222;41.866;12.462;2024-02-15T10:28:07;9.00;;;5.75;;
43756;SDS011;73222;41.866;12.462;2024-02-15T10:30:37;7.57;;;6.20;;
43756;SDS011;73222;41.866;12.462;2024-02-15T10:33:05;11.35;;;6.05;;
43756;SDS011;73222;41.866;12.462;2024-02-15T10:35:32;9.48;;;5.10;;
43756;SDS011;73222;41.866;12.462;2024-02-15T10:38:06;6.70;;;5.60;;
43756;SDS011;73222;41.866;12.462;2024-02-15T10:40:33;7.57;;;5.78;;
43756;SDS011;73222;41.866;12.462;2024-02-15T10:42:58;11.43;;;5.50;;
43756;SDS011;73222;41.866;12.462;2024-02-15T10:45:27;8.90;;;5.20;;
43756;SDS011;73222;41.866;12.462;2024-02-15T10:47:55;8.65;;;5.60;;
43756;SDS011;73222;41.866;12.462;2024-02-15T10:50:22;9.02;;;6.05;;
43756;SDS011;73222;41.866;12.462;2024-02-15T10:52:53;12.13;;;5.97;;
43756;SDS011;73222;41.866;12.462;2024-02-15T10:57:50;11.55;;;5.85;;
43756;SDS011;73222;41.866;12.462;2024-02-15T11:00:17;7.80;;;5.80;;
43756;SDS011;73222;41.866;12.462;2024-02-15T11:03:02;8.55;;;5.68;;
43756;SDS011;73222;41.866;12.462;2024-02-15T11:05:34;10.45;;;6.60;;
43756;SDS011;73222;41.866;12.462;2024-02-15T11:08:07;6.25;;;4.60;;
43756;SDS011;73222;41.866;12.462;2024-02-15T11:13:04;8.75;;;5.68;;
43756;SDS011;73222;41.866;12.462;2024-02-15T11:18:23;10.10;;;4.97;;
43756;SDS011;73222;41.866;12.462;2024-02-15T11:21:13;10.00;;;5.35;;
43756;SDS011;73222;41.866;12.462;2024-02-15T11:23:40;7.95;;;5.07;;
43756;SDS011;73222;41.866;12.462;2024-02-15T11:26:14;9.27;;;4.90;;
43756;SDS011;73222;41.866;12.462;2024-02-15T11:29:07;7.38;;;5.38;;
43756;SDS011;73222;41.866;12.462;2024-02-15T11:37:38;9.90;;;5.28;;
43756;SDS011;73222;41.866;12.462;2024-02-15T11:40:21;7.53;;;4.70;;
43756;SDS011;73222;41.866;12.462;2024-02-15T11:43:00;6.68;;;5.03;;
43756;SDS011;73222;41.866;12.462;2024-02-15T11:45:28;6.60;;;4.85;;
43756;SDS011;73222;41.866;12.462;2024-02-15T11:47:59;6.30;;;4.45;;
43756;SDS011;73222;41.866;12.462;2024-02-15T11:50:27;7.55;;;4.80;;
43756;SDS011;73222;41.866;12.462;2024-02-15T11:53:01;5.13;;;4.57;;
43756;SDS011;73222;41.866;12.462;2024-02-15T11:55:34;7.47;;;4.20;;
43756;SDS011;73222;41.866;12.462;2024-02-15T11:58:00;9.18;;;5.03;;
43756;SDS011;73222;41.866;12.462;2024-02-15T12:00:32;8.02;;;4.25;;
43756;SDS011;73222;41.866;12.462;2024-02-15T12:03:17;7.28;;;4.10;;
43756;SDS011;73222;41.866;12.462;2024-02-15T12:06:02;5.18;;;4.47;;
43756;SDS011;73222;41.866;12.462;2024-02-15T12:08:47;7.70;;;4.63;;
43756;SDS011;73222;41.866;12.462;2024-02-15T12:11:32;9.20;;;4.75;;
43756;SDS011;73222;41.866;12.462;2024-02-15T12:14:17;8.40;;;4.38;;
43756;SDS011;73222;41.866;12.462;2024-02-15T12:17:02;6.80;;;3.85;;
43756;SDS011;73222;41.866;12.462;2024-02-15T12:19:48;6.68;;;4.35;;
43756;SDS011;73222;41.866;12.462;2024-02-15T12:22:16;5.90;;;3.80;;
43756;SDS011;73222;41.866;12.462;2024-02-15T12:24:52;9.27;;;4.07;;
43756;SDS011;73222;41.866;12.462;2024-02-15T12:29:45;5.38;;;3.50;;
43756;SDS011;73222;41.866;12.462;2024-02-15T12:32:24;5.53;;;3.72;;
43756;SDS011;73222;41.866;12.462;2024-02-15T12:34:51;4.63;;;2.83;;
43756;SDS011;73222;41.866;12.462;2024-02-15T12:37:20;3.40;;;2.72;;
43756;SDS011;73222;41.866;12.462;2024-02-15T12:39:47;4.53;;;2.92;;
43756;SDS011;73222;41.866;12.462;2024-02-15T12:42:15;4.60;;;2.70;;
43756;SDS011;73222;41.866;12.462;2024-02-15T12:44:46;3.92;;;2.70;;
43756;SDS011;73222;41.866;12.462;2024-02-15T12:47:19;4.30;;;2.67;;
43756;SDS011;73222;41.866;12.462;2024-02-15T12:49:45;3.20;;;2.47;;
43756;SDS011;73222;41.866;12.462;2024-02-15T12:55:10;4.03;;;3.13;;
43756;SDS011;73222;41.866;12.462;2024-02-15T12:57:40;4.05;;;3.17;;
43756;SDS011;73222;41.866;12.462;2024-02-15T13:00:10;5.90;;;3.38;;
43756;SDS011;73222;41.866;12.462;2024-02-15T13:02:38;4.28;;;3.00;;
43756;SDS011;73222;41.866;12.462;2024-02-15T13:05:04;3.45;;;2.90;;
43756;SDS011;73222;41.866;12.462;2024-02-15T13:07:33;4.93;;;3.20;;
43756;SDS011;73222;41.866;12.462;2024-02-15T13:09:59;4.82;;;3.33;;
43756;SDS011;73222;41.866;12.462;2024-02-15T13:12:25;5.72;;;3.25;;
43756;SDS011;73222;41.866;12.462;2024-02-15T13:14:50;8.55;;;3.38;;
43756;SDS011;73222;41.866;12.462;2024-02-15T13:17:15;5.13;;;3.28;;
43756;SDS011;73222;41.866;12.462;2024-02-15T13:19:47;3.97;;;2.95;;
43756;SDS011;73222;41.866;12.462;2024-02-15T13:22:17;4.22;;;2.97;;
43756;SDS011;73222;41.866;12.462;2024-02-15T13:24:43;4.40;;;3.03;;
43756;SDS011;73222;41.866;12.462;2024-02-15T13:27:09;5.57;;;3.00;;
43756;SDS011;73222;41.866;12.462;2024-02-15T13:29:38;4.15;;;3.03;;
43756;SDS011;73222;41.866;12.462;2024-02-15T13:32:06;5.85;;;3.25;;
43756;SDS011;73222;41.866;12.462;2024-02-15T13:34:32;5.50;;;3.10;;
43756;SDS011;73222;41.866;12.462;2024-02-15T13:37:01;5.75;;;3.10;;
43756;SDS011;73222;41.866;12.462;2024-02-15T13:39:29;6.85;;;3.80;;
43756;SDS011;73222;41.866;12.462;2024-02-15T13:41:58;5.97;;;3.10;;
43756;SDS011;73222;41.866;12.462;2024-02-15T13:44:27;4.47;;;3.22;;
43756;SDS011;73222;41.866;12.462;2024-02-15T13:46:52;5.93;;;3.78;;
43756;SDS011;73222;41.866;12.462;2024-02-15T13:49:20;4.75;;;3.28;;
43756;SDS011;73222;41.866;12.462;2024-02-15T13:51:46;7.95;;;3.40;;
43756;SDS011;73222;41.866;12.462;2024-02-15T13:54:12;6.13;;;3.70;;
43756;SDS011;73222;41.866;12.462;2024-02-15T13:56:37;4.00;;;3.15;;
43756;SDS011;73222;41.866;12.462;2024-02-15T13:59:04;5.05;;;3.30;;
43756;SDS011;73222;41.866;12.462;2024-02-15T14:01:29;4.85;;;3.47;;
43756;SDS011;73222;41.866;12.462;2024-02-15T14:03:55;6.40;;;3.78;;
43756;SDS011;73222;41.866;12.462;2024-02-15T14:06:20;8.05;;;3.80;;
43756;SDS011;73222;41.866;12.462;2024-02-15T14:08:46;4.32;;;3.33;;
43756;SDS011;73222;41.866;12.462;2024-02-15T14:11:12;8.05;;;4.18;;
43756;SDS011;73222;41.866;12.462;2024-02-15T14:13:37;8.85;;;4.50;;
43756;SDS011;73222;41.866;12.462;2024-02-15T14:16:02;8.65;;;4.72;;
43756;SDS011;73222;41.866;12.462;2024-02-15T14:18:29;6.60;;;3.90;;
43756;SDS011;73222;41.866;12.462;2024-02-15T14:20:55;11.93;;;4.15;;
43756;SDS011;73222;41.866;12.462;2024-02-15T14:23:21;6.25;;;4.05;;
43756;SDS011;73222;41.866;12.462;2024-02-15T14:25:46;5.95;;;4.18;;
43756;SDS011;73222;41.866;12.462;2024-02-15T14:28:12;5.88;;;4.53;;
43756;SDS011;73222;41.866;12.462;2024-02-15T14:30:39;6.38;;;5.03;;
43756;SDS011;73222;41.866;12.462;2024-02-15T14:33:24;6.47;;;4.68;;
43756;SDS011;73222;41.866;12.462;2024-02-15T14:35:51;7.15;;;4.93;;
43756;SDS011;73222;41.866;12.462;2024-02-15T14:38:21;10.32;;;5.20;;
43756;SDS011;73222;41.866;12.462;2024-02-15T14:40:48;9.55;;;5.53;;
43756;SDS011;73222;41.866;12.462;2024-02-15T14:43:25;8.90;;;5.43;;
43756;SDS011;73222;41.866;12.462;2024-02-15T14:45:51;10.82;;;5.63;;
43756;SDS011;73222;41.866;12.462;2024-02-15T14:48:18;8.95;;;5.20;;
43756;SDS011;73222;41.866;12.462;2024-02-15T14:50:45;8.10;;;5.93;;
43756;SDS011;73222;41.866;12.462;2024-02-15T14:53:11;7.55;;;5.20;;